Strona główna
METAR-TAF:

METAR-TAF

Lotnisko :

Leuchars, Szkocja

Szerokość geograficzna: 56-23N, Długość geograficzna: 002-52W, wysokość: 12 m

Aktualna obserwacja pogody

Raport powstał 32 minut temu, godzina 06:50 UTC
Wiatr 10 kt od zachodnio-południowy zachód
Temperatura 5°C
Wilgotność 93%
Ciśnienie 1026 hPa
Widzialność 10 km lub więcej
Brak chmur poniżej 1500 m i brak chmur cumulonimbus

METAR: EGQL 070650Z 25010KT CAVOK 05/04 Q1026 BLU

czas: 08:22 (07:22 UTC)

Prognoza

Raport powstał 3 godziny i 8 minut temu, godzina 04:14 UTC
Prognoza ważna od 07 godzina 06 UTC do 07 godzina 15 UTC
Wiatr 12 kt od południowy zachód
Widzialność 10 km lub więcej
Mało chmury na wysokości 4000 ft
Prawdopodobieństwo 30% :
Przejściowo
od 07 godzina 10 UTC do 07 godzina 15 UTC
Wiatr 15 kt od południowy zachód w porywach dochodzący do 25 kt

TAF: EGQL 070414Z 0706/0715 22012KT 9999 FEW040 PROB30 TEMPO 0710/0715 22015G25KT

Obserwacja i prognoza pogody dla ponad 4000 lotnisk (raport METAR i TAF).

Dostępne stacje oznaczono żółtymi i czerwonymi punktami na mapie.

Najedź kursorem aby zobaczyć nazwę stacji.

Kliknij aby zobaczyć obserwacje i prognozy pogody.

Aby zmienić mapę: kliknij na zielony przycisk z czarnym krzyżykiem, aby powiększyć; na zielony przycisk z myślnikiem, aby pomniejszyć; na zielone strzałki, aby przejść do map sąsiednich.


METAR-TAF: